Time;durP1;ratioP1;P1;durP2;ratioP2;P2;SDS_P1;SDS_P2;PMS_P1;PMS_P2;Temp;Humidity;BMP_temperature;BMP_pressure;BME280_temperature;BME280_humidity;BME280_pressure;Samples;Min_cycle;Max_cycle;Signal;HPM_P1;HPM_P2
2021/03/29 00:02:10;;;;;;;170.90;60.75;;;-1.10;98.20;;;;;;5054732;28;20025;-81
2021/03/29 00:04:36;;;;;;;147.55;53.05;;;-1.10;98.80;;;;;;5053470;28;20378;-81
2021/03/29 00:07:04;;;;;;;100.72;40.25;;;-1.10;98.80;;;;;;5054712;28;20053;-81
2021/03/29 00:09:32;;;;;;;83.30;33.58;;;-1.00;98.90;;;;;;5053332;28;20052;-80
2021/03/29 00:12:02;;;;;;;98.22;36.85;;;-1.00;97.80;;;;;;5054605;28;20040;-80
2021/03/29 00:14:29;;;;;;;82.82;33.83;;;-0.90;97.20;;;;;;5054280;28;20033;-80
2021/03/29 00:16:55;;;;;;;79.75;31.80;;;-0.90;97.40;;;;;;5053335;28;20025;-80
2021/03/29 00:19:22;;;;;;;78.38;31.83;;;-0.90;97.20;;;;;;5054381;28;20032;-79
2021/03/29 00:21:48;;;;;;;62.05;28.35;;;-0.90;97.30;;;;;;5054471;28;20025;-80
2021/03/29 00:24:14;;;;;;;70.55;29.52;;;-0.90;97.30;;;;;;5052995;28;20383;-79
2021/03/29 00:26:41;;;;;;;261.90;89.35;;;-0.80;96.90;;;;;;5054377;28;20025;-80
2021/03/29 00:29:07;;;;;;;223.10;75.72;;;-0.90;97.20;;;;;;5052936;28;20024;-79
2021/03/29 00:31:33;;;;;;;272.52;90.13;;;-0.90;97.90;;;;;;5054248;28;20025;-80
2021/03/29 00:34:00;;;;;;;177.15;68.22;;;-0.90;98.10;;;;;;5052800;28;20385;-79
2021/03/29 00:36:27;;;;;;;248.48;83.97;;;-0.90;98.10;;;;;;5052755;28;20021;-79
2021/03/29 00:38:54;;;;;;;179.43;63.70;;;-1.00;97.80;;;;;;5054213;28;20057;-79
2021/03/29 00:41:21;;;;;;;171.02;64.95;;;-1.00;99.20;;;;;;5052761;28;20482;-79
2021/03/29 00:43:49;;;;;;;187.07;66.55;;;-1.00;99.90;;;;;;5052793;28;20386;-79
2021/03/29 00:46:17;;;;;;;164.23;57.85;;;-1.00;99.80;;;;;;5053922;28;20024;-78
2021/03/29 00:48:44;;;;;;;129.52;50.08;;;-0.90;99.90;;;;;;5054165;28;20497;-79
2021/03/29 00:51:18;;;;;;;146.88;52.25;;;-0.90;99.90;;;;;;5052635;28;20159;-79
2021/03/29 00:53:50;;;;;;;123.43;49.53;;;-0.90;99.90;;;;;;5053901;28;20025;-79
2021/03/29 00:56:16;;;;;;;123.22;48.90;;;-0.90;99.90;;;;;;5052397;28;20055;-79
2021/03/29 00:58:45;;;;;;;128.23;47.67;;;-0.90;99.90;;;;;;5053629;28;20017;-80
2021/03/29 01:01:16;;;;;;;128.23;47.67;;;-0.90;99.90;;;;;;5052140;28;20024;-81
2021/03/29 01:03:46;;;;;;;118.15;45.95;;;-0.90;99.90;;;;;;5052303;28;20025;-80
2021/03/29 01:06:18;;;;;;;121.70;45.60;;;-0.90;99.90;;;;;;5051036;28;20421;-81
2021/03/29 01:08:48;;;;;;;109.50;43.88;;;-0.90;99.90;;;;;;5053312;28;20056;-80
2021/03/29 01:11:21;;;;;;;101.28;37.67;;;-0.90;99.90;;;;;;5051995;28;20025;-81
2021/03/29 01:13:57;;;;;;;93.90;37.33;;;-0.90;99.90;;;;;;5052144;28;20486;-81
2021/03/29 01:16:25;;;;;;;82.55;33.20;;;-0.90;99.90;;;;;;5053405;28;20033;-80
2021/03/29 01:18:55;;;;;;;70.32;31.77;;;-0.90;99.90;;;;;;5053420;28;20423;-80
2021/03/29 01:21:38;;;;;;;99.75;37.58;;;-0.90;99.10;;;;;;5051981;28;20025;-80
2021/03/29 01:24:21;;;;;;;93.93;39.35;;;-0.90;99.70;;;;;;5053154;28;20478;-80
2021/03/29 01:26:47;;;;;;;;;;;-0.90;99.90;;;;;;5052517;28;20466;-80
2021/03/29 01:29:15;;;;;;;107.28;41.83;;;-0.80;99.90;;;;;;5053135;28;19962;-79
2021/03/29 01:31:42;;;;;;;123.68;46.55;;;-0.90;99.90;;;;;;5053225;28;20066;-79
2021/03/29 01:34:10;;;;;;;114.40;45.03;;;-0.90;99.90;;;;;;5053012;28;20019;-80
2021/03/29 01:36:36;;;;;;;114.22;43.45;;;-0.80;99.90;;;;;;5051830;28;20147;-80
2021/03/29 01:39:04;;;;;;;100.40;40.15;;;-0.80;99.90;;;;;;5052982;28;20372;-82
2021/03/29 01:41:30;;;;;;;91.05;38.20;;;-0.80;99.90;;;;;;5051706;28;20036;-80
2021/03/29 01:43:57;;;;;;;94.18;35.35;;;-0.80;99.90;;;;;;5051654;28;20056;-80
2021/03/29 01:46:23;;;;;;;86.05;34.75;;;-0.80;99.90;;;;;;5050754;28;20021;-79
2021/03/29 01:48:50;;;;;;;81.55;32.08;;;-0.80;99.90;;;;;;5051290;28;20090;-80
2021/03/29 01:51:17;;;;;;;73.82;29.02;;;-0.80;99.90;;;;;;5052793;28;20071;-80
2021/03/29 01:53:44;;;;;;;73.13;30.15;;;-0.80;99.90;;;;;;5051471;28;20055;-80
2021/03/29 01:56:09;;;;;;;76.20;30.92;;;-0.80;99.90;;;;;;5051436;28;20044;-79
2021/03/29 01:58:35;;;;;;;74.63;31.30;;;-0.80;99.90;;;;;;5051507;28;20021;-79
2021/03/29 02:01:12;;;;;;;79.55;34.10;;;-0.70;99.90;;;;;;5052719;28;20036;-79
2021/03/29 02:03:40;;;;;;;68.47;29.13;;;-0.70;99.90;;;;;;5051480;28;20029;-80
2021/03/29 02:06:07;;;;;;;75.15;30.73;;;-0.70;99.90;;;;;;5051432;28;20048;-79
2021/03/29 02:08:35;;;;;;;70.88;28.45;;;-0.60;99.90;;;;;;5052700;28;20029;-80
2021/03/29 02:11:02;;;;;;;76.57;31.60;;;-0.60;99.90;;;;;;5052583;28;20475;-79
2021/03/29 02:13:34;;;;;;;67.47;31.08;;;-0.60;99.90;;;;;;5052627;28;20112;-79
2021/03/29 02:16:09;;;;;;;76.45;32.67;;;-0.50;99.90;;;;;;5050231;28;20033;-79
2021/03/29 02:18:56;;;;;;;69.10;29.45;;;-0.50;99.90;;;;;;5051387;28;20497;-79
2021/03/29 02:21:25;;;;;;;65.53;29.05;;;-0.50;99.90;;;;;;5052620;28;20038;-80
2021/03/29 02:23:57;;;;;;;66.45;28.30;;;-0.40;99.90;;;;;;5051320;28;20033;-79
2021/03/29 02:26:25;;;;;;;68.60;28.50;;;-0.40;99.90;;;;;;5052611;28;20017;-79
2021/03/29 02:28:52;;;;;;;69.50;29.52;;;-0.40;99.90;;;;;;5052585;28;20017;-79
2021/03/29 02:31:18;;;;;;;75.72;31.13;;;-0.40;99.90;;;;;;5052495;28;20031;-80
2021/03/29 02:33:47;;;;;;;92.68;35.47;;;-0.40;99.90;;;;;;5051236;28;20099;-80
2021/03/29 02:36:13;;;;;;;109.90;40.90;;;-0.40;99.90;;;;;;5051064;28;20036;-80
2021/03/29 02:38:39;;;;;;;84.93;37.78;;;-0.40;99.90;;;;;;5051260;28;20462;-80
2021/03/29 02:41:05;;;;;;;95.68;37.90;;;-0.40;99.90;;;;;;5051143;28;20025;-79
2021/03/29 02:43:31;;;;;;;95.38;37.53;;;-0.30;99.90;;;;;;5051557;28;20544;-79
2021/03/29 02:46:01;;;;;;;90.68;39.28;;;-0.30;99.90;;;;;;5052217;28;20381;-79
2021/03/29 02:48:30;;;;;;;92.60;42.13;;;-0.30;99.90;;;;;;5051063;28;20431;-79
2021/03/29 02:50:57;;;;;;;96.35;38.72;;;-0.30;99.90;;;;;;5050445;28;20132;-79
2021/03/29 02:53:30;;;;;;;93.97;39.72;;;-0.20;99.90;;;;;;5050887;28;20013;-78
2021/03/29 02:56:00;;;;;;;96.03;41.97;;;-0.20;99.90;;;;;;5052225;28;20068;-79
2021/03/29 02:58:29;;;;;;;85.95;36.17;;;-0.20;99.90;;;;;;5050987;28;20037;-79
2021/03/29 03:00:56;;;;;;;84.10;38.63;;;-0.10;99.90;;;;;;5055020;28;20028;-82
2021/03/29 03:03:22;;;;;;;90.78;35.35;;;-0.10;99.90;;;;;;5054647;28;20545;-79
2021/03/29 03:05:51;;;;;;;86.13;37.20;;;-0.10;99.90;;;;;;5055858;28;20104;-80
2021/03/29 03:08:18;;;;;;;89.30;36.90;;;-0.10;99.90;;;;;;5054543;28;20029;-81
2021/03/29 03:10:44;;;;;;;77.47;34.92;;;-0.10;99.90;;;;;;5054463;28;20049;-80
2021/03/29 03:13:10;;;;;;;82.00;36.20;;;-0.10;99.90;;;;;;5054429;28;20453;-78
2021/03/29 03:15:37;;;;;;;90.40;36.65;;;0.00;99.90;;;;;;5054290;28;20136;-78
2021/03/29 03:18:06;;;;;;;75.18;33.53;;;0.00;99.90;;;;;;5055621;28;20024;-78
2021/03/29 03:20:34;;;;;;;83.40;36.67;;;0.00;99.90;;;;;;5054273;28;20134;-77
2021/03/29 03:23:08;;;;;;;75.05;34.55;;;0.10;99.90;;;;;;5055604;28;20024;-79
2021/03/29 03:25:37;;;;;;;72.95;34.20;;;0.10;99.90;;;;;;5055546;28;20028;-81
2021/03/29 03:28:08;;;;;;;85.50;35.83;;;0.10;99.90;;;;;;5054220;28;20089;-81
2021/03/29 03:30:39;;;;;;;73.30;33.95;;;0.20;99.90;;;;;;5054054;28;20020;-81
2021/03/29 03:33:07;;;;;;;77.47;33.17;;;0.20;99.90;;;;;;5053950;28;20029;-82
2021/03/29 03:35:34;;;;;;;87.05;35.47;;;0.20;99.90;;;;;;5053958;28;20037;-81
2021/03/29 03:38:08;;;;;;;77.35;36.30;;;0.20;99.90;;;;;;5054111;28;20037;-81
2021/03/29 03:40:35;;;;;;;74.40;34.90;;;0.30;99.90;;;;;;5053934;28;20025;-81
2021/03/29 03:43:03;;;;;;;91.32;39.58;;;0.30;99.90;;;;;;5055126;28;20018;-81
2021/03/29 03:45:34;;;;;;;72.65;35.75;;;0.30;99.90;;;;;;5055033;28;20029;-81
2021/03/29 03:48:01;;;;;;;101.75;41.35;;;0.30;99.90;;;;;;5054971;28;20112;-79
2021/03/29 03:50:27;;;;;;;143.02;51.17;;;0.40;99.90;;;;;;5054997;28;20033;-80
2021/03/29 03:52:55;;;;;;;222.40;80.28;;;0.40;99.90;;;;;;5053766;28;20017;-80
2021/03/29 03:55:22;;;;;;;226.75;83.35;;;0.30;99.90;;;;;;5053433;28;20068;-79
2021/03/29 03:57:48;;;;;;;178.15;65.65;;;0.40;99.90;;;;;;5053644;28;20428;-78
2021/03/29 04:00:17;;;;;;;114.82;49.83;;;0.40;99.90;;;;;;5053474;28;20445;-77
2021/03/29 04:02:45;;;;;;;93.72;40.72;;;0.40;99.90;;;;;;5053565;28;20025;-79
2021/03/29 04:05:13;;;;;;;99.25;42.78;;;0.40;99.90;;;;;;5053443;28;20478;-77
2021/03/29 04:07:39;;;;;;;102.15;40.75;;;0.50;99.90;;;;;;5053551;28;20445;-77
2021/03/29 04:10:24;;;;;;;102.60;41.97;;;0.60;99.90;;;;;;5054231;28;20029;-77
2021/03/29 04:12:56;;;;;;;172.02;62.65;;;0.70;99.90;;;;;;5054728;28;20013;-77
2021/03/29 04:15:22;;;;;;;136.00;55.40;;;0.70;99.90;;;;;;5054498;28;20033;-77
2021/03/29 04:17:48;;;;;;;129.05;53.92;;;0.60;99.90;;;;;;5054782;28;20049;-78
2021/03/29 04:20:15;;;;;;;198.75;70.55;;;0.60;99.90;;;;;;5054435;28;20112;-77
2021/03/29 04:22:41;;;;;;;187.50;72.43;;;0.50;99.90;;;;;;5054525;28;20036;-77
2021/03/29 04:25:10;;;;;;;151.75;60.75;;;0.50;99.90;;;;;;5054298;28;20025;-78
2021/03/29 04:27:36;;;;;;;205.98;77.75;;;0.50;99.90;;;;;;5054315;28;20467;-79
2021/03/29 04:30:04;;;;;;;198.65;73.40;;;0.50;99.90;;;;;;5052999;28;20096;-79
2021/03/29 04:32:29;;;;;;;201.10;73.43;;;0.60;99.90;;;;;;5054197;28;20025;-78
2021/03/29 04:34:55;;;;;;;211.90;80.68;;;0.60;99.90;;;;;;5054124;28;20163;-79
2021/03/29 04:37:21;;;;;;;237.07;86.10;;;0.60;99.90;;;;;;5052425;28;20501;-78
2021/03/29 04:39:46;;;;;;;228.63;87.97;;;0.70;99.90;;;;;;5051869;28;20492;-77
2021/03/29 04:42:12;;;;;;;213.88;82.13;;;0.70;99.90;;;;;;5052359;28;20528;-77
2021/03/29 04:44:38;;;;;;;193.38;74.13;;;0.70;99.90;;;;;;5053981;28;20032;-77
2021/03/29 04:47:04;;;;;;;187.05;68.85;;;0.70;99.90;;;;;;5053951;28;20470;-77
2021/03/29 04:49:30;;;;;;;174.40;68.32;;;0.80;99.90;;;;;;5053470;28;20036;-77
2021/03/29 04:51:56;;;;;;;191.15;74.30;;;0.80;99.90;;;;;;5052672;28;20024;-78
2021/03/29 04:54:21;;;;;;;167.70;67.78;;;0.90;99.90;;;;;;5052168;28;20029;-78
2021/03/29 04:56:47;;;;;;;163.00;63.78;;;0.90;99.90;;;;;;5052620;28;20029;-77
2021/03/29 04:59:12;;;;;;;134.68;55.45;;;1.00;99.90;;;;;;5053660;28;20509;-78
2021/03/29 05:01:38;;;;;;;116.78;53.70;;;1.00;99.90;;;;;;5053742;28;20021;-77
2021/03/29 05:04:04;;;;;;;110.10;47.65;;;1.10;99.90;;;;;;5052342;28;20028;-77
2021/03/29 05:06:30;;;;;;;105.20;47.65;;;1.20;99.90;;;;;;5052396;28;20027;-77
2021/03/29 05:08:56;;;;;;;98.85;42.88;;;1.20;99.90;;;;;;5052254;28;20017;-78
2021/03/29 05:11:22;;;;;;;109.35;47.88;;;1.30;99.90;;;;;;5052631;28;20025;-78
2021/03/29 05:13:48;;;;;;;100.88;43.95;;;1.30;99.90;;;;;;5053546;28;20032;-76
2021/03/29 05:16:13;;;;;;;121.38;49.25;;;1.40;99.90;;;;;;5053416;28;20427;-77
2021/03/29 05:18:39;;;;;;;145.77;62.08;;;1.50;99.90;;;;;;5052042;28;20112;-76
2021/03/29 05:21:05;;;;;;;145.30;64.13;;;1.50;99.90;;;;;;5052044;28;20021;-77
2021/03/29 05:23:30;;;;;;;155.07;68.47;;;1.60;99.90;;;;;;5052491;28;20410;-78
2021/03/29 05:25:56;;;;;;;165.73;71.22;;;1.70;99.90;;;;;;5053213;28;20390;-77
2021/03/29 05:28:22;;;;;;;103.68;46.33;;;1.70;99.90;;;;;;5051942;28;20017;-78
2021/03/29 05:30:48;;;;;;;84.57;37.40;;;1.80;99.90;;;;;;5053237;28;20029;-77
2021/03/29 05:33:14;;;;;;;66.35;32.20;;;1.90;99.90;;;;;;5051668;28;20029;-78
2021/03/29 05:35:39;;;;;;;75.88;34.47;;;2.00;99.90;;;;;;5053005;28;20397;-77
2021/03/29 05:38:05;;;;;;;71.95;32.55;;;2.00;99.90;;;;;;5051776;28;20112;-77
2021/03/29 05:40:31;;;;;;;102.53;43.35;;;2.20;99.90;;;;;;5053026;28;20100;-77
2021/03/29 05:42:57;;;;;;;129.38;59.45;;;2.20;99.90;;;;;;5051745;28;20029;-77
2021/03/29 05:45:27;;;;;;;133.57;61.08;;;2.30;99.90;;;;;;5051523;28;20025;-77
2021/03/29 05:47:53;;;;;;;153.65;63.80;;;2.40;99.90;;;;;;5051512;28;20068;-77
2021/03/29 05:50:19;;;;;;;139.38;64.38;;;2.40;99.90;;;;;;5051460;28;20021;-78
2021/03/29 05:52:45;;;;;;;156.93;67.13;;;2.50;99.90;;;;;;5051761;28;20547;-86
2021/03/29 05:55:15;;;;;;;137.98;63.75;;;2.50;99.90;;;;;;5052682;28;20025;-88
2021/03/29 06:00:35;;;;;;;159.05;61.90;;;2.60;99.90;;;;;;5043236;28;20033;-79
2021/03/29 06:03:28;;;;;;;108.47;49.83;;;2.70;99.90;;;;;;5050420;28;20017;-78
2021/03/29 06:06:14;;;;;;;162.68;63.60;;;2.70;99.90;;;;;;5049214;28;20025;-82
2021/03/29 06:08:47;;;;;;;127.53;52.08;;;2.70;99.90;;;;;;5052561;28;20025;-83
2021/03/29 06:11:28;;;;;;;91.78;42.72;;;2.80;99.90;;;;;;5052627;28;20111;-79
2021/03/29 06:14:14;;;;;;;72.13;33.65;;;2.90;99.90;;;;;;5054341;28;20024;-79
2021/03/29 06:16:59;;;;;;;65.35;31.67;;;2.90;99.90;;;;;;5050854;28;20044;-84
2021/03/29 06:20:00;;;;;;;74.97;35.10;;;3.00;99.90;;;;;;5050702;28;20025;-80
2021/03/29 06:22:40;;;;;;;64.63;30.45;;;3.10;99.90;;;;;;5051145;28;20467;-79
2021/03/29 06:25:20;;;;;;;60.30;27.40;;;3.20;99.90;;;;;;5051343;28;20087;-81
2021/03/29 06:27:59;;;;;;;67.43;28.83;;;3.20;99.90;;;;;;5040428;28;20109;-86
2021/03/29 06:30:31;;;;;;;120.82;45.08;;;3.30;99.90;;;;;;5042345;28;20062;-91
2021/03/29 06:33:07;;;;;;;118.93;48.55;;;3.30;99.90;;;;;;5046725;28;20053;-91
2021/03/29 06:35:52;;;;;;;133.73;51.47;;;3.40;99.90;;;;;;5049790;28;20124;-88
2021/03/29 06:38:24;;;;;;;89.78;37.83;;;3.50;99.90;;;;;;5054617;28;20029;-89
2021/03/29 06:40:55;;;;;;;82.75;33.75;;;3.60;99.90;;;;;;5054695;28;20027;-89
2021/03/29 06:43:28;;;;;;;59.83;26.75;;;3.80;99.90;;;;;;5054896;28;20033;-90
2021/03/29 06:45:58;;;;;;;;;;;3.90;96.60;;;;;;5055532;28;20055;-90
2021/03/29 06:48:33;;;;;;;45.70;24.13;;;4.00;90.90;;;;;;5055093;28;19913;-88
2021/03/29 06:51:18;;;;;;;45.05;23.42;;;4.10;89.90;;;;;;5054840;28;20061;-85
2021/03/29 06:53:47;;;;;;;71.22;33.85;;;4.10;88.70;;;;;;5054900;28;20032;-88
2021/03/29 06:56:22;;;;;;;124.30;51.70;;;4.20;89.60;;;;;;5056001;28;20040;-86
2021/03/29 06:58:53;;;;;;;90.80;37.97;;;4.30;89.30;;;;;;5054851;28;20025;-90
2021/03/29 07:01:24;;;;;;;165.18;57.20;;;4.40;89.80;;;;;;5053644;28;20025;-84
2021/03/29 07:03:52;;;;;;;78.03;32.40;;;4.40;90.30;;;;;;5052261;28;20090;-85
2021/03/29 07:06:21;;;;;;;88.57;35.60;;;4.50;90.00;;;;;;5055941;28;20035;-85
2021/03/29 07:08:47;;;;;;;56.80;28.20;;;4.50;89.60;;;;;;5054662;28;20025;-86
2021/03/29 07:11:16;;;;;;;83.43;36.00;;;4.70;88.20;;;;;;5055634;28;20436;-88
2021/03/29 07:13:45;;;;;;;76.43;33.28;;;4.70;87.90;;;;;;5053331;28;20021;-85
2021/03/29 07:16:13;;;;;;;61.30;27.23;;;4.80;85.40;;;;;;5055228;28;20033;-84
2021/03/29 07:18:40;;;;;;;61.90;28.38;;;4.90;84.20;;;;;;5055715;28;20025;-83
2021/03/29 07:21:08;;;;;;;61.60;27.60;;;5.00;84.70;;;;;;5055628;28;20029;-82
2021/03/29 07:23:35;;;;;;;61.90;36.13;;;5.10;85.50;;;;;;5055928;28;20021;-84
2021/03/29 07:26:02;;;;;;;59.80;29.38;;;5.20;84.20;;;;;;5037481;28;20039;-84
2021/03/29 07:28:30;;;;;;;47.45;24.33;;;5.30;84.40;;;;;;5054219;28;20036;-82
2021/03/29 07:31:01;;;;;;;51.55;25.90;;;5.40;83.40;;;;;;5054157;28;20556;-83
2021/03/29 07:33:54;;;;;;;41.08;19.92;;;5.50;81.40;;;;;;5055492;28;20036;-81
2021/03/29 07:36:42;;;;;;;54.22;20.10;;;5.70;80.40;;;;;;5054052;28;20456;-84
2021/03/29 07:39:10;;;;;;;42.47;20.65;;;5.80;78.90;;;;;;5053910;28;20021;-82
2021/03/29 07:41:36;;;;;;;41.40;20.20;;;6.00;80.60;;;;;;5053855;28;20032;-83
2021/03/29 07:44:16;;;;;;;42.05;19.17;;;6.00;80.00;;;;;;5053750;28;20041;-84
2021/03/29 07:46:48;;;;;;;37.00;19.70;;;6.20;77.10;;;;;;5050117;28;20021;-83
2021/03/29 07:49:46;;;;;;;40.63;18.63;;;6.30;76.50;;;;;;5050015;28;20518;-84
2021/03/29 07:52:24;;;;;;;36.88;17.83;;;6.40;75.20;;;;;;5042532;28;20276;-83
2021/03/29 07:54:54;;;;;;;39.67;18.67;;;6.60;76.00;;;;;;5055010;28;20091;-83
2021/03/29 07:57:45;;;;;;;40.42;19.23;;;6.70;74.80;;;;;;5053658;28;20413;-83
2021/03/29 08:00:11;;;;;;;42.15;18.80;;;6.90;74.50;;;;;;5054833;28;20028;-81
2021/03/29 08:02:37;;;;;;;35.63;18.75;;;7.00;72.40;;;;;;5053543;28;20025;-81
2021/03/29 08:05:05;;;;;;;38.08;18.98;;;7.10;73.30;;;;;;5053487;28;20025;-79
2021/03/29 08:07:55;;;;;;;32.78;18.50;;;7.20;71.30;;;;;;5053460;28;20029;-79
2021/03/29 08:11:00;;;;;;;36.38;16.77;;;7.30;71.10;;;;;;5051017;28;20029;-79
2021/03/29 08:13:56;;;;;;;37.75;18.30;;;7.50;70.10;;;;;;5051498;28;20429;-79
2021/03/29 08:16:22;;;;;;;30.75;16.52;;;7.60;69.30;;;;;;5034312;28;20063;-79
2021/03/29 08:19:17;;;;;;;37.28;17.25;;;7.70;67.10;;;;;;5033127;28;20119;-80
2021/03/29 08:22:03;;;;;;;37.90;16.38;;;7.80;67.40;;;;;;5033385;28;20057;-81
2021/03/29 08:24:31;;;;;;;35.38;16.98;;;7.90;66.50;;;;;;5034332;28;20025;-79
2021/03/29 08:26:59;;;;;;;30.38;15.15;;;8.10;66.70;;;;;;5032823;28;20414;-78
2021/03/29 08:29:40;;;;;;;33.45;15.15;;;8.10;65.50;;;;;;5040318;28;20036;-79
2021/03/29 08:32:14;;;;;;;30.95;16.58;;;8.30;66.00;;;;;;5053021;28;20017;-80
2021/03/29 08:34:49;;;;;;;30.52;14.88;;;8.30;64.60;;;;;;5051835;28;20045;-79
2021/03/29 08:37:20;;;;;;;30.80;13.93;;;8.50;65.60;;;;;;5049293;28;20486;-79
2021/03/29 08:39:48;;;;;;;26.38;13.82;;;8.60;63.60;;;;;;5050560;28;20027;-81
2021/03/29 08:42:17;;;;;;;26.33;13.70;;;8.70;63.70;;;;;;5052118;28;20017;-78
2021/03/29 08:44:44;;;;;;;24.65;12.98;;;8.80;62.00;;;;;;5051759;28;20020;-81
2021/03/29 08:47:13;;;;;;;23.85;11.93;;;8.90;62.10;;;;;;5051128;28;20378;-85
2021/03/29 08:49:39;;;;;;;22.73;12.52;;;9.00;61.30;;;;;;5053668;28;20087;-85
2021/03/29 08:52:06;;;;;;;20.58;12.75;;;9.00;61.20;;;;;;5052231;28;20115;-85
2021/03/29 08:54:32;;;;;;;27.98;12.52;;;9.10;59.80;;;;;;5050492;28;20032;-86
2021/03/29 08:57:06;;;;;;;26.90;12.60;;;9.10;59.50;;;;;;5050585;28;20387;-86
2021/03/29 08:59:32;;;;;;;24.05;12.82;;;9.20;59.10;;;;;;5053781;28;20025;-86
2021/03/29 09:02:11;;;;;;;20.92;11.77;;;9.20;59.50;;;;;;5052464;28;20428;-85
2021/03/29 09:04:50;;;;;;;19.08;11.02;;;9.10;58.80;;;;;;5053726;28;20029;-86
2021/03/29 09:07:16;;;;;;;22.17;11.98;;;9.10;58.40;;;;;;5049448;28;20087;-85
2021/03/29 09:09:42;;;;;;;27.58;12.02;;;9.20;58.20;;;;;;5053677;28;20017;-85
2021/03/29 09:12:19;;;;;;;26.70;12.13;;;9.20;58.00;;;;;;5052064;28;20029;-85
2021/03/29 09:14:46;;;;;;;19.80;12.13;;;9.30;58.30;;;;;;5053381;28;20461;-84
2021/03/29 09:17:20;;;;;;;27.48;12.73;;;9.40;58.50;;;;;;5052219;28;20031;-84
2021/03/29 09:19:45;;;;;;;26.67;14.75;;;9.50;58.50;;;;;;5051886;28;20056;-86
2021/03/29 09:22:11;;;;;;;27.83;16.08;;;9.40;57.60;;;;;;5051678;28;20109;-86
2021/03/29 09:24:36;;;;;;;28.67;13.13;;;9.50;58.10;;;;;;5051625;28;20020;-85
2021/03/29 09:27:10;;;;;;;23.48;12.13;;;9.50;57.40;;;;;;5052015;28;20025;-86
2021/03/29 09:29:41;;;;;;;22.38;12.27;;;9.60;57.20;;;;;;5052403;28;20025;-86
2021/03/29 09:32:16;;;;;;;24.88;11.40;;;9.70;57.40;;;;;;5050415;28;20025;-85
2021/03/29 09:34:46;;;;;;;22.42;11.23;;;9.80;57.00;;;;;;5051758;28;20033;-86
2021/03/29 09:37:26;;;;;;;23.00;11.80;;;9.90;56.20;;;;;;5052689;28;20074;-85
2021/03/29 09:40:07;;;;;;;26.15;11.98;;;10.10;56.40;;;;;;5051362;28;20543;-85
2021/03/29 09:42:43;;;;;;;21.75;12.27;;;10.30;56.00;;;;;;5050847;28;20031;-85
2021/03/29 09:45:26;;;;;;;24.23;12.88;;;10.40;55.30;;;;;;5051886;28;20025;-85
2021/03/29 09:48:10;;;;;;;20.60;11.02;;;10.50;54.50;;;;;;5051954;28;20076;-85
2021/03/29 09:50:45;;;;;;;21.48;11.40;;;10.60;54.50;;;;;;5051419;28;20429;-86
2021/03/29 09:53:20;;;;;;;24.08;12.48;;;10.70;53.90;;;;;;5041131;28;20017;-88
2021/03/29 09:55:51;;;;;;;26.23;13.85;;;10.80;53.70;;;;;;5034847;28;20037;-87
2021/03/29 09:58:23;;;;;;;29.10;13.25;;;10.90;53.60;;;;;;5043884;28;20021;-89
2021/03/29 10:00:51;;;;;;;27.95;12.88;;;11.20;53.70;;;;;;5041251;28;20056;-89
2021/03/29 10:03:18;;;;;;;28.67;13.30;;;11.30;53.20;;;;;;5030185;28;20096;-88
2021/03/29 10:05:45;;;;;;;28.15;15.77;;;11.30;52.90;;;;;;5039526;28;20029;-88
2021/03/29 10:08:14;;;;;;;32.50;19.60;;;11.50;52.70;;;;;;5042585;28;20060;-86
2021/03/29 10:10:40;;;;;;;34.67;17.05;;;11.50;51.80;;;;;;5041800;28;20056;-86
2021/03/29 10:13:07;;;;;;;26.42;17.58;;;11.50;52.50;;;;;;5051446;28;20021;-87
2021/03/29 10:15:34;;;;;;;39.03;17.92;;;11.60;51.70;;;;;;5048993;28;20563;-86
2021/03/29 10:18:07;;;;;;;29.67;15.98;;;11.60;51.80;;;;;;5040962;28;20029;-90
2021/03/29 10:20:35;;;;;;;36.70;19.05;;;11.70;51.60;;;;;;5040819;28;20116;-85
2021/03/29 10:23:22;;;;;;;25.77;14.27;;;11.60;51.40;;;;;;5035998;28;20544;-85
2021/03/29 10:26:10;;;;;;;38.08;20.23;;;11.70;51.80;;;;;;5046389;28;20041;-86
2021/03/29 10:28:37;;;;;;;34.30;14.77;;;12.00;52.00;;;;;;5038692;28;20047;-86
2021/03/29 10:31:03;;;;;;;34.50;18.45;;;12.30;51.70;;;;;;5046972;28;20383;-85
2021/03/29 10:33:29;;;;;;;24.45;13.43;;;12.40;50.70;;;;;;5040400;28;20013;-85
2021/03/29 10:35:54;;;;;;;19.83;10.38;;;12.40;50.40;;;;;;5032761;28;20498;-86
2021/03/29 10:38:26;;;;;;;27.35;17.55;;;12.70;50.70;;;;;;5035318;28;20017;-85
2021/03/29 10:40:52;;;;;;;25.02;11.23;;;12.70;49.90;;;;;;5045440;28;20478;-88
2021/03/29 10:43:17;;;;;;;22.00;10.82;;;12.60;49.00;;;;;;5051038;28;20024;-87
2021/03/29 10:45:43;;;;;;;27.50;17.08;;;12.70;50.00;;;;;;5050921;28;20073;-87
2021/03/29 10:48:09;;;;;;;20.00;10.60;;;12.80;49.50;;;;;;5049778;28;20037;-88
2021/03/29 10:50:34;;;;;;;16.17;8.48;;;12.80;48.80;;;;;;5052193;28;20025;-88
2021/03/29 10:53:00;;;;;;;17.17;8.63;;;12.90;48.20;;;;;;5050994;28;20025;-86
2021/03/29 10:55:26;;;;;;;20.15;12.32;;;12.80;48.10;;;;;;5052185;28;20013;-88
2021/03/29 10:57:52;;;;;;;19.35;10.55;;;12.80;48.30;;;;;;5051047;28;20013;-87
2021/03/29 11:00:18;;;;;;;26.00;9.98;;;12.90;49.20;;;;;;5050976;28;20063;-88
2021/03/29 11:02:43;;;;;;;17.50;9.60;;;12.90;48.40;;;;;;5049073;28;20025;-87
2021/03/29 11:05:10;;;;;;;24.55;15.18;;;12.90;48.70;;;;;;5051609;28;20036;-87
2021/03/29 11:07:36;;;;;;;26.02;11.98;;;12.90;48.50;;;;;;5050532;28;20028;-87
2021/03/29 11:10:02;;;;;;;18.05;9.80;;;12.70;48.10;;;;;;5050126;28;20032;-86
2021/03/29 11:12:28;;;;;;;31.90;17.63;;;12.60;47.90;;;;;;5050726;28;20086;-86
2021/03/29 11:14:54;;;;;;;28.73;15.73;;;12.60;48.40;;;;;;5050318;28;20473;-87
2021/03/29 11:17:21;;;;;;;20.30;9.75;;;12.60;48.80;;;;;;5049331;28;20009;-86
2021/03/29 11:19:47;;;;;;;16.65;7.75;;;12.60;49.00;;;;;;5049101;28;20069;-87
2021/03/29 11:22:12;;;;;;;26.38;13.55;;;12.60;48.70;;;;;;5053272;28;20055;-87
2021/03/29 11:24:38;;;;;;;20.48;9.98;;;12.60;50.10;;;;;;5053431;28;20025;-88
2021/03/29 11:27:04;;;;;;;18.95;9.40;;;12.60;48.60;;;;;;5055059;28;21074;-87
2021/03/29 11:29:30;;;;;;;38.47;20.67;;;12.60;48.30;;;;;;5053825;28;20506;-87
2021/03/29 11:31:55;;;;;;;27.95;12.13;;;12.70;48.80;;;;;;5055219;28;20021;-87
2021/03/29 11:34:21;;;;;;;27.80;13.45;;;12.70;48.60;;;;;;5053520;28;20021;-88
2021/03/29 11:36:47;;;;;;;425.15;170.55;;;12.70;48.80;;;;;;5053612;28;20013;-88
2021/03/29 11:39:13;;;;;;;23.98;10.45;;;12.80;49.20;;;;;;5054325;28;20096;-88
2021/03/29 11:41:41;;;;;;;40.55;21.58;;;12.80;48.10;;;;;;5054958;28;20051;-86
2021/03/29 11:44:07;;;;;;;299.50;128.60;;;12.70;47.90;;;;;;5054780;28;20029;-86
2021/03/29 11:46:33;;;;;;;22.10;9.57;;;12.80;48.20;;;;;;5054621;28;20123;-86
2021/03/29 11:48:59;;;;;;;36.10;17.92;;;12.80;48.00;;;;;;5054386;28;20078;-86
2021/03/29 11:51:27;;;;;;;26.75;10.82;;;12.80;48.40;;;;;;5053347;28;20048;-87
2021/03/29 11:53:52;;;;;;;24.77;10.07;;;12.80;48.30;;;;;;5042292;28;20024;-89
2021/03/29 11:56:18;;;;;;;25.65;12.73;;;12.80;48.30;;;;;;5052529;28;20024;-83
2021/03/29 11:58:47;;;;;;;53.85;18.17;;;12.90;48.40;;;;;;5054048;28;20029;-83
2021/03/29 12:01:25;;;;;;;19.65;8.15;;;13.00;48.60;;;;;;5053295;28;20466;-86
2021/03/29 12:04:00;;;;;;;50.35;19.48;;;12.90;47.90;;;;;;5054501;28;20111;-87
2021/03/29 12:06:31;;;;;;;57.28;21.42;;;12.90;48.10;;;;;;5050203;28;20548;-84
2021/03/29 12:12:03;;;;;;;46.25;16.40;;;12.90;48.20;;;;;;5051988;28;20501;-83
2021/03/29 12:14:32;;;;;;;25.63;10.65;;;12.80;48.00;;;;;;5054606;28;20029;-84
2021/03/29 12:16:58;;;;;;;20.08;11.10;;;12.80;48.40;;;;;;5053308;28;20533;-83
2021/03/29 12:19:25;;;;;;;37.78;14.82;;;12.80;48.60;;;;;;5054442;28;20489;-84
2021/03/29 12:21:56;;;;;;;20.98;9.60;;;12.80;48.70;;;;;;5054521;28;20017;-84
2021/03/29 12:24:24;;;;;;;61.13;25.63;;;12.80;48.70;;;;;;5052555;28;20055;-87
2021/03/29 12:26:53;;;;;;;69.50;26.85;;;12.70;48.90;;;;;;5054429;28;20032;-86
2021/03/29 12:29:25;;;;;;;33.28;13.90;;;12.70;49.40;;;;;;5054211;28;20428;-85
2021/03/29 12:31:54;;;;;;;24.38;10.82;;;12.70;49.10;;;;;;5052795;28;20025;-88
2021/03/29 12:34:21;;;;;;;22.80;12.25;;;12.60;49.20;;;;;;5052931;28;20029;-84
2021/03/29 12:36:51;;;;;;;64.60;27.80;;;12.70;49.60;;;;;;5052663;28;20017;-85
2021/03/29 12:41:46;;;;;;;15.77;8.95;;;12.80;49.90;;;;;;5054538;28;20116;-84
2021/03/29 12:44:16;;;;;;;20.27;10.35;;;12.90;50.20;;;;;;5051871;28;20023;-84
2021/03/29 12:46:45;;;;;;;47.75;15.45;;;12.90;50.30;;;;;;5052753;28;20041;-83
2021/03/29 12:49:15;;;;;;;26.67;11.63;;;12.90;50.10;;;;;;5051560;28;20029;-84
2021/03/29 12:51:43;;;;;;;38.50;13.25;;;12.90;51.00;;;;;;5050579;28;20028;-83
2021/03/29 12:54:15;;;;;;;56.63;20.40;;;13.00;50.60;;;;;;5079975;28;20043;-84